createdAt,value
2023-02-02T01:47:06.363Z,18.17
2023-02-02T01:49:39.361Z,18.33
2023-02-02T01:52:07.424Z,19.92
2023-02-02T01:54:43.702Z,19.20
2023-02-02T01:57:34.769Z,20.05
2023-02-02T02:00:05.783Z,19.95
2023-02-02T02:02:44.590Z,19.13
2023-02-02T02:05:13.029Z,19.08
2023-02-02T02:07:42.444Z,19.65
2023-02-02T02:10:11.174Z,19.27
2023-02-02T02:12:39.534Z,19.98
2023-02-02T02:15:26.686Z,19.65
2023-02-02T02:18:31.611Z,18.98
2023-02-02T02:21:51.147Z,19.77
2023-02-02T02:25:14.678Z,20.55
2023-02-02T02:28:03.543Z,20.60
2023-02-02T02:30:37.553Z,20.00
2023-02-02T02:33:33.692Z,19.75
2023-02-02T02:36:18.443Z,22.53
2023-02-02T02:39:03.429Z,19.38
2023-02-02T02:41:38.184Z,21.08
2023-02-02T02:44:09.355Z,19.75
2023-02-02T02:46:37.494Z,20.95
2023-02-02T02:49:11.426Z,21.75
2023-02-02T02:51:46.027Z,21.13
2023-02-02T02:54:31.104Z,21.83
2023-02-02T02:56:59.604Z,19.98
2023-02-02T03:00:02.239Z,20.77
2023-02-02T03:02:37.507Z,20.67
2023-02-02T03:05:20.247Z,20.88
2023-02-02T03:07:55.418Z,20.70
2023-02-02T03:10:24.530Z,20.20
2023-02-02T03:12:52.896Z,21.35
2023-02-02T03:15:20.723Z,19.02
2023-02-02T03:17:49.469Z,19.02
2023-02-02T03:20:18.994Z,20.85
2023-02-02T03:22:47.499Z,20.17
2023-02-02T03:25:16.488Z,20.05
2023-02-02T03:27:44.824Z,20.02
2023-02-02T03:30:13.472Z,20.48
2023-02-02T03:32:42.196Z,20.77
2023-02-02T03:35:10.124Z,19.88
2023-02-02T03:37:38.059Z,21.02
2023-02-02T03:40:06.832Z,19.52
2023-02-02T03:42:34.790Z,19.77
2023-02-02T03:45:02.708Z,18.58
2023-02-02T03:47:31.144Z,18.52
2023-02-02T03:49:59.114Z,18.10
2023-02-02T03:52:27.329Z,17.98
2023-02-02T03:54:55.087Z,18.13
2023-02-02T03:57:23.389Z,17.50
2023-02-02T03:59:51.272Z,16.95
2023-02-02T04:02:19.334Z,17.42
2023-02-02T04:04:47.236Z,16.85
2023-02-02T04:07:15.338Z,16.10
2023-02-02T04:09:43.292Z,17.33
2023-02-02T04:12:11.090Z,16.10
2023-02-02T04:14:39.001Z,18.38
2023-02-02T04:17:06.841Z,16.10
2023-02-02T04:19:35.244Z,16.00
2023-02-02T04:22:04.236Z,16.13
2023-02-02T04:24:33.292Z,15.18
2023-02-02T04:27:01.099Z,16.02
2023-02-02T04:29:29.919Z,16.60
2023-02-02T04:32:00.956Z,17.48
2023-02-02T04:34:34.300Z,16.02
2023-02-02T04:37:02.457Z,16.35
2023-02-02T04:39:31.489Z,18.15
2023-02-02T04:41:59.333Z,17.05
2023-02-02T04:44:27.356Z,17.77
2023-02-02T04:46:55.623Z,18.08
2023-02-02T04:49:23.730Z,18.17
2023-02-02T04:51:53.453Z,18.05
2023-02-02T04:54:31.841Z,17.25
2023-02-02T04:57:00.432Z,17.98
2023-02-02T04:59:31.320Z,17.88
2023-02-02T05:02:00.913Z,20.42
2023-02-02T05:04:31.614Z,19.65
2023-02-02T05:07:02.346Z,19.13
2023-02-02T05:09:30.308Z,19.95
2023-02-02T05:11:58.197Z,19.15
2023-02-02T05:14:27.455Z,18.83
2023-02-02T05:16:55.325Z,19.80
2023-02-02T05:19:23.314Z,18.10
2023-02-02T05:21:52.725Z,20.98
2023-02-02T05:24:20.646Z,19.92
2023-02-02T05:26:49.183Z,18.90
2023-02-02T05:29:17.957Z,18.90
2023-02-02T05:31:46.650Z,18.73
2023-02-02T05:34:37.358Z,18.50
2023-02-02T05:37:09.735Z,18.45
2023-02-02T05:39:38.118Z,16.67
2023-02-02T05:42:12.160Z,17.67
2023-02-02T05:44:40.009Z,18.67
2023-02-02T05:47:08.224Z,18.90
2023-02-02T05:49:37.056Z,18.88
2023-02-02T05:52:06.743Z,17.88
2023-02-02T05:54:36.358Z,19.10
2023-02-02T05:57:05.676Z,19.02
2023-02-02T05:59:37.195Z,17.77
2023-02-02T06:02:05.516Z,18.80
2023-02-02T06:04:39.683Z,20.08
2023-02-02T06:07:10.368Z,20.65
2023-02-02T06:09:39.818Z,20.05
2023-02-02T06:12:10.414Z,20.63
2023-02-02T06:14:40.168Z,19.73
2023-02-02T06:17:08.724Z,19.08
2023-02-02T06:19:36.988Z,19.05
2023-02-02T06:22:04.915Z,17.70
2023-02-02T06:24:33.080Z,18.42
2023-02-02T06:27:01.247Z,17.60
2023-02-02T06:29:29.806Z,18.20
2023-02-02T06:32:00.061Z,18.60
2023-02-02T06:34:31.053Z,20.27
2023-02-02T06:37:01.245Z,19.30
2023-02-02T06:39:29.921Z,19.95
2023-02-02T06:41:59.318Z,17.80
2023-02-02T06:44:31.016Z,18.80
2023-02-02T06:46:59.211Z,18.23
2023-02-02T06:49:29.639Z,20.92
2023-02-02T06:51:59.327Z,18.85
2023-02-02T06:54:27.859Z,18.45
2023-02-02T06:56:56.305Z,19.48
2023-02-02T06:59:26.474Z,18.20
2023-02-02T07:02:01.559Z,18.27
2023-02-02T07:04:32.001Z,17.30
2023-02-02T07:07:01.020Z,16.23
2023-02-02T07:09:34.154Z,17.30
2023-02-02T07:12:05.214Z,17.08
2023-02-02T07:14:38.261Z,16.63
2023-02-02T07:17:29.321Z,17.85
2023-02-02T10:17:44.633Z,14.98
2023-02-02T10:20:44.793Z,15.50
2023-02-02T10:23:28.303Z,15.98
2023-02-02T10:26:23.586Z,15.55
2023-02-02T10:29:18.001Z,15.57
2023-02-02T10:32:12.696Z,15.98
2023-02-02T10:34:41.930Z,16.13
2023-02-02T10:37:30.819Z,14.95
2023-02-02T10:40:06.211Z,15.50
2023-02-02T10:43:20.725Z,15.30
2023-02-02T10:45:50.728Z,15.02
2023-02-02T10:48:24.001Z,13.40
2023-02-02T10:50:54.355Z,15.18
2023-02-02T10:53:22.371Z,13.90
2023-02-02T10:56:05.008Z,15.57
2023-02-02T10:58:41.361Z,15.18
2023-02-02T11:01:11.694Z,15.00
2023-02-02T11:03:42.875Z,14.55
2023-02-02T11:06:29.798Z,15.18
2023-02-02T11:08:59.674Z,15.77
2023-02-02T11:11:28.636Z,16.63
2023-02-02T11:14:02.513Z,15.35
2023-02-02T11:16:41.900Z,13.20
2023-02-02T11:19:19.877Z,12.57
2023-02-02T11:21:49.576Z,13.98
2023-02-02T11:24:45.445Z,14.10
2023-02-02T11:27:17.380Z,12.75
2023-02-02T11:29:52.552Z,12.68
2023-02-02T11:32:35.696Z,11.82
2023-02-02T11:35:11.177Z,11.73
2023-02-02T11:37:51.801Z,12.75
2023-02-02T11:40:40.371Z,12.57
2023-02-02T11:43:20.241Z,12.80
2023-02-02T11:45:53.622Z,12.68
2023-02-02T11:48:24.904Z,13.80
2023-02-02T11:50:55.536Z,12.80
2023-02-02T11:53:33.270Z,13.40
2023-02-02T11:56:06.353Z,12.57
2023-02-02T11:58:47.753Z,14.73
2023-02-02T12:01:24.923Z,13.13
2023-02-02T12:03:56.374Z,14.23
2023-02-02T12:06:34.231Z,13.05
2023-02-02T12:09:05.173Z,14.23
2023-02-02T12:11:39.299Z,12.88
2023-02-02T12:14:21.975Z,11.95
2023-02-02T12:17:00.193Z,11.90
2023-02-02T12:20:05.804Z,10.18
2023-02-02T12:22:55.345Z,10.25
2023-02-02T12:25:32.121Z,9.95
2023-02-02T12:28:16.678Z,8.95
2023-02-02T12:31:35.280Z,8.88
2023-02-02T12:34:06.662Z,8.55
2023-02-02T12:36:37.529Z,8.23
2023-02-02T12:39:17.666Z,8.75
2023-02-02T12:41:45.679Z,9.35
2023-02-02T12:44:33.001Z,9.38
2023-02-02T12:47:09.430Z,9.63
2023-02-02T12:49:42.940Z,9.45
2023-02-02T12:52:42.204Z,9.52
2023-02-02T12:55:22.021Z,9.45
2023-02-02T12:57:55.805Z,9.40
2023-02-02T13:00:38.968Z,9.82
2023-02-02T13:03:30.330Z,10.40
2023-02-02T13:06:10.682Z,11.23
2023-02-02T13:09:02.349Z,9.75
2023-02-02T13:11:49.913Z,10.60
2023-02-02T13:14:24.245Z,10.00
2023-02-02T13:16:58.164Z,9.48
2023-02-02T13:19:37.348Z,8.70
2023-02-02T13:22:07.388Z,8.68
2023-02-02T13:24:37.380Z,9.02
2023-02-02T13:27:06.328Z,9.45
2023-02-02T13:29:47.277Z,8.13
2023-02-02T13:32:32.159Z,7.38
2023-02-02T13:35:20.769Z,7.82
2023-02-02T13:37:53.826Z,7.63
2023-02-02T13:40:29.789Z,8.32
2023-02-02T13:43:13.342Z,8.50
2023-02-02T13:46:19.507Z,8.40
2023-02-02T13:48:52.711Z,9.73
2023-02-02T13:51:42.360Z,9.98
2023-02-02T13:54:49.248Z,9.68
2023-02-02T13:58:04.247Z,10.13
2023-02-02T14:00:35.758Z,9.90
2023-02-02T14:03:06.155Z,11.05
2023-02-02T14:05:39.154Z,11.30
2023-02-02T14:08:18.860Z,12.40
2023-02-02T14:10:53.604Z,11.10
2023-02-02T14:14:03.589Z,12.77
2023-02-02T14:16:32.112Z,11.30
2023-02-02T14:19:00.851Z,12.23
2023-02-02T14:21:32.096Z,11.63
2023-02-02T14:24:22.191Z,10.80
2023-02-02T14:26:52.675Z,11.05
2023-02-02T14:29:32.556Z,11.05
2023-02-02T14:32:35.789Z,11.85
2023-02-02T14:35:13.837Z,12.70
2023-02-02T14:38:09.173Z,12.85
2023-02-02T14:40:48.923Z,12.85
2023-02-02T14:43:49.968Z,13.88
2023-02-02T14:46:25.479Z,13.43
2023-02-02T14:48:57.279Z,16.50
2023-02-02T14:51:27.060Z,15.18
2023-02-02T14:54:08.990Z,16.38
2023-02-02T14:56:52.038Z,15.98
2023-02-02T14:59:32.665Z,15.50
2023-02-02T15:02:16.206Z,16.58
2023-02-02T15:04:48.129Z,18.25
2023-02-02T15:07:23.416Z,18.27
2023-02-02T15:09:56.561Z,16.83
2023-02-02T15:12:29.924Z,16.27
2023-02-02T15:15:17.807Z,16.95
2023-02-02T15:17:51.814Z,17.85
2023-02-02T15:20:44.799Z,19.33
2023-02-02T15:23:34.495Z,17.75
2023-02-02T15:26:25.428Z,18.02
2023-02-02T15:29:05.897Z,17.20
2023-02-02T15:31:40.090Z,17.10
2023-02-02T15:34:27.737Z,16.70
2023-02-02T15:36:57.156Z,15.40
2023-02-02T15:39:31.533Z,17.17
2023-02-02T15:42:19.621Z,15.85
2023-02-02T15:44:48.128Z,15.50
2023-02-02T15:47:18.867Z,15.68
2023-02-02T15:49:46.629Z,15.07
2023-02-02T15:52:17.782Z,15.35
2023-02-02T15:55:00.547Z,14.35
2023-02-02T15:57:33.764Z,17.33
2023-02-02T16:00:23.980Z,19.23
2023-02-02T16:03:13.401Z,18.25
2023-02-02T16:05:47.537Z,19.00
2023-02-02T16:08:27.978Z,18.17
2023-02-02T16:11:17.067Z,18.52
2023-02-02T16:14:39.800Z,17.45
2023-02-02T16:17:32.112Z,16.73
2023-02-02T16:20:04.362Z,17.02
2023-02-02T16:22:33.317Z,17.48
2023-02-02T16:25:04.225Z,16.98
2023-02-02T16:27:34.665Z,16.77
2023-02-02T16:30:08.178Z,16.73
2023-02-02T16:32:39.026Z,18.85
2023-02-02T16:35:27.900Z,20.77
2023-02-02T16:38:32.062Z,21.08
2023-02-02T16:41:08.104Z,21.10
2023-02-02T16:43:39.364Z,20.52
2023-02-02T16:46:13.789Z,20.60
2023-02-02T16:48:45.524Z,19.48
2023-02-02T16:51:16.606Z,20.05
2023-02-02T16:53:52.086Z,21.63
2023-02-02T16:56:22.208Z,18.83
2023-02-02T16:58:58.294Z,18.05
2023-02-02T17:01:39.586Z,15.20
2023-02-02T17:04:34.220Z,13.65
2023-02-02T17:07:13.312Z,10.80
2023-02-02T17:10:19.110Z,12.15
2023-02-02T17:12:47.436Z,12.50
2023-02-02T17:15:35.198Z,11.93
2023-02-02T17:18:04.891Z,11.10
2023-02-02T17:20:34.795Z,12.02
2023-02-02T17:23:05.040Z,13.45
2023-02-02T17:25:40.391Z,14.18
2023-02-02T17:28:11.674Z,13.45
2023-02-02T17:30:46.042Z,12.48
2023-02-02T17:33:17.205Z,12.07
2023-02-02T17:35:54.750Z,13.05
2023-02-02T17:38:24.947Z,13.88
2023-02-02T17:41:01.354Z,14.30
2023-02-02T17:43:32.939Z,12.57
2023-02-02T17:46:12.500Z,11.88
2023-02-02T17:48:40.615Z,11.93
2023-02-02T17:51:15.497Z,11.13
2023-02-02T17:53:43.988Z,11.25
2023-02-02T17:56:12.514Z,10.85
2023-02-02T17:58:40.490Z,10.77
2023-02-02T18:01:08.749Z,11.68
2023-02-02T18:03:43.427Z,11.32
2023-02-02T18:06:13.829Z,11.48
2023-02-02T18:09:02.550Z,12.25
2023-02-02T18:11:31.891Z,12.75
2023-02-02T18:14:00.091Z,12.98
2023-02-02T18:16:28.092Z,12.73
2023-02-02T18:18:57.491Z,13.63
2023-02-02T18:21:26.678Z,14.07
2023-02-02T18:23:57.677Z,14.45
2023-02-02T18:26:27.856Z,13.40
2023-02-02T18:28:59.764Z,13.98
2023-02-02T18:31:29.423Z,14.50
2023-02-02T18:33:58.449Z,12.93
2023-02-02T18:36:26.307Z,13.82
2023-02-02T18:38:55.963Z,16.58
2023-02-02T18:41:24.268Z,14.40
2023-02-02T18:43:55.014Z,13.85
2023-02-02T18:46:23.155Z,12.35
2023-02-02T18:48:51.529Z,12.70
2023-02-02T18:51:22.103Z,13.23
2023-02-02T18:53:50.840Z,12.88
2023-02-02T18:56:21.529Z,12.65
2023-02-02T18:58:49.391Z,11.95
2023-02-02T19:01:20.081Z,12.10
2023-02-02T19:03:55.284Z,11.82
2023-02-02T19:06:45.420Z,13.00
2023-02-02T19:09:22.510Z,11.95
2023-02-02T19:11:51.657Z,12.68
2023-02-02T19:14:33.379Z,11.38
2023-02-02T19:17:25.392Z,10.88
2023-02-02T19:19:54.810Z,10.73
2023-02-02T19:22:23.925Z,11.27
2023-02-02T19:24:52.562Z,11.05
2023-02-02T19:27:29.151Z,10.68
2023-02-02T19:30:03.907Z,11.60
2023-02-02T19:32:46.534Z,11.30
2023-02-02T19:35:22.510Z,12.93
2023-02-02T19:40:21.139Z,12.55
2023-02-02T19:42:56.313Z,12.32
2023-02-02T19:45:30.171Z,13.02
2023-02-02T19:48:00.429Z,13.05
2023-02-02T19:50:32.918Z,13.60
2023-02-02T19:53:05.805Z,13.68
2023-02-02T19:55:36.162Z,11.93
2023-02-02T19:58:21.475Z,12.13
2023-02-02T20:00:55.948Z,11.75
2023-02-02T20:03:26.046Z,12.35
2023-02-02T20:06:01.185Z,11.52
2023-02-02T20:08:34.889Z,11.80
2023-02-02T20:11:19.414Z,11.88
2023-02-02T20:13:55.444Z,12.23
2023-02-02T20:16:41.054Z,12.80
2023-02-02T20:19:17.232Z,13.77
2023-02-02T20:21:46.896Z,12.43
2023-02-02T20:24:19.722Z,12.52
2023-02-02T20:26:48.789Z,11.20
2023-02-02T20:29:38.845Z,10.23
2023-02-02T20:32:12.746Z,8.63
2023-02-02T20:34:40.981Z,8.23
2023-02-02T20:37:14.548Z,8.50
2023-02-02T20:39:47.894Z,8.07
2023-02-02T20:42:15.948Z,7.85
2023-02-02T20:44:43.781Z,7.38
2023-02-02T20:47:12.869Z,6.65
2023-02-02T20:49:41.125Z,7.90
2023-02-02T20:52:12.010Z,7.95
2023-02-02T20:54:41.585Z,7.45
2023-02-02T20:57:11.548Z,7.78
2023-02-02T20:59:42.506Z,7.80
2023-02-02T21:02:18.858Z,7.80
2023-02-02T21:05:04.210Z,7.25
2023-02-02T21:07:43.841Z,7.18
2023-02-02T21:10:13.388Z,7.45
2023-02-02T21:12:43.782Z,6.75
2023-02-02T21:15:12.113Z,7.72
2023-02-02T21:17:44.103Z,8.13
2023-02-02T21:20:24.866Z,8.93
2023-02-02T21:22:53.078Z,7.55
2023-02-02T21:25:20.830Z,7.85
2023-02-02T21:27:57.178Z,7.18
2023-02-02T21:30:25.716Z,7.03
2023-02-02T21:32:53.817Z,7.40
2023-02-02T21:35:22.549Z,8.70
2023-02-02T21:37:52.051Z,7.65
2023-02-02T21:40:32.918Z,7.90
2023-02-02T21:43:09.360Z,7.50
2023-02-02T21:48:34.226Z,7.70
2023-02-02T21:51:23.547Z,8.00
2023-02-02T21:53:52.043Z,7.72
2023-02-02T21:56:36.100Z,8.30
2023-02-02T21:59:15.520Z,8.13
2023-02-02T22:01:43.505Z,7.47
2023-02-02T22:04:24.542Z,7.88
2023-02-02T22:06:54.530Z,7.30
2023-02-02T22:09:24.736Z,7.25
2023-02-02T22:12:02.933Z,7.65
2023-02-02T22:14:38.947Z,8.07
2023-02-02T22:17:26.216Z,7.82
2023-02-02T22:20:01.756Z,8.02
2023-02-02T22:22:32.804Z,7.70
2023-02-02T22:25:04.270Z,7.22
2023-02-02T22:27:46.300Z,7.05
2023-02-02T22:30:38.710Z,6.57
2023-02-02T22:33:07.762Z,6.53
2023-02-02T22:35:35.593Z,7.32
2023-02-02T22:38:03.805Z,7.50
2023-02-02T22:40:33.010Z,7.97
2023-02-02T22:43:05.814Z,6.90
2023-02-02T22:45:34.422Z,7.40
2023-02-02T22:48:02.313Z,6.53
2023-02-02T22:50:35.026Z,5.90
2023-02-02T22:53:04.151Z,6.28
2023-02-02T22:55:33.216Z,5.70
2023-02-02T22:58:02.766Z,6.53
2023-02-02T23:00:32.327Z,6.03
2023-02-02T23:03:00.334Z,6.53
2023-02-02T23:05:28.444Z,8.38
2023-02-02T23:07:57.095Z,9.00
2023-02-02T23:10:26.961Z,10.52
2023-02-02T23:12:58.696Z,11.52
2023-02-02T23:15:27.244Z,12.18
2023-02-02T23:17:55.137Z,10.95
2023-02-02T23:20:27.031Z,10.65
2023-02-02T23:22:55.320Z,10.57
2023-02-02T23:25:23.769Z,9.98
2023-02-02T23:27:51.932Z,10.98
2023-02-02T23:30:22.289Z,9.45
2023-02-02T23:33:10.844Z,9.10
2023-02-02T23:35:42.042Z,8.82
2023-02-02T23:38:10.432Z,8.38
2023-02-02T23:40:38.346Z,8.60
2023-02-02T23:43:10.101Z,9.25
2023-02-02T23:45:40.978Z,8.90
2023-02-02T23:48:10.433Z,9.20
2023-02-02T23:50:40.513Z,9.90
2023-02-02T23:53:09.274Z,10.75
2023-02-02T23:55:41.719Z,11.30
2023-02-02T23:58:10.377Z,10.23
